createdAt,value
2023-03-12T00:00:14.523Z,75.83
2023-03-12T00:02:41.371Z,75.92
2023-03-12T00:05:08.670Z,75.92
2023-03-12T00:07:36.642Z,75.95
2023-03-12T00:10:04.929Z,76.48
2023-03-12T00:12:31.840Z,76.33
2023-03-12T00:14:58.667Z,76.41
2023-03-12T00:17:25.824Z,76.50
2023-03-12T00:19:53.570Z,76.44
2023-03-12T00:22:23.440Z,76.50
2023-03-12T00:24:52.037Z,76.42
2023-03-12T00:27:19.390Z,76.98
2023-03-12T00:29:46.432Z,77.06
2023-03-12T00:32:13.422Z,76.46
2023-03-12T00:34:40.338Z,76.43
2023-03-12T00:37:08.195Z,76.83
2023-03-12T00:39:35.500Z,77.18
2023-03-12T00:42:02.296Z,76.80
2023-03-12T00:44:29.115Z,77.02
2023-03-12T00:46:56.002Z,77.00
2023-03-12T00:49:22.830Z,77.35
2023-03-12T00:51:49.703Z,77.12
2023-03-12T00:54:16.689Z,77.14
2023-03-12T00:56:43.569Z,76.92
2023-03-12T00:59:10.323Z,76.48
2023-03-12T01:01:37.093Z,76.22
2023-03-12T01:04:04.154Z,76.31
2023-03-12T01:06:31.195Z,76.57
2023-03-12T01:08:58.137Z,76.71
2023-03-12T01:11:24.989Z,76.53
2023-03-12T01:13:51.914Z,76.60
2023-03-12T01:16:18.686Z,76.53
2023-03-12T01:18:45.598Z,76.85
2023-03-12T01:21:12.417Z,77.02
2023-03-12T01:23:39.202Z,77.30
2023-03-12T01:26:05.995Z,77.73
2023-03-12T01:28:32.796Z,78.22
2023-03-12T01:31:07.331Z,78.49
2023-03-12T01:33:34.499Z,78.59
2023-03-12T01:36:01.414Z,78.54
2023-03-12T01:38:28.292Z,78.63
2023-03-12T01:40:55.088Z,78.53
2023-03-12T01:43:28.217Z,78.43
2023-03-12T01:46:25.850Z,77.98
2023-03-12T01:49:12.040Z,77.84
2023-03-12T01:51:50.953Z,78.08
2023-03-12T01:54:35.631Z,78.19
2023-03-12T01:57:05.408Z,77.95
2023-03-12T01:59:52.446Z,78.01
2023-03-12T02:02:23.681Z,77.89
2023-03-12T02:04:52.843Z,78.11
2023-03-12T02:07:20.073Z,78.17
2023-03-12T02:09:49.577Z,78.10
2023-03-12T02:12:17.443Z,78.28
2023-03-12T02:14:44.616Z,78.07
2023-03-12T02:17:12.442Z,78.05
2023-03-12T02:20:19.873Z,78.50
2023-03-12T02:22:57.988Z,78.31
2023-03-12T02:25:40.756Z,78.21
2023-03-12T02:28:12.348Z,78.06
2023-03-12T02:30:43.181Z,77.89
2023-03-12T02:33:11.095Z,78.55
2023-03-12T02:35:38.562Z,78.44
2023-03-12T02:38:44.064Z,78.78
2023-03-12T02:41:19.018Z,78.63
2023-03-12T02:43:50.298Z,78.79
2023-03-12T02:46:17.739Z,78.97
2023-03-12T02:48:44.605Z,79.24
2023-03-12T02:51:11.582Z,79.00
2023-03-12T02:53:38.803Z,78.98
2023-03-12T02:56:06.920Z,79.19
2023-03-12T02:58:33.953Z,78.93
2023-03-12T03:01:01.933Z,78.87
2023-03-12T03:03:28.987Z,78.81
2023-03-12T03:05:55.824Z,78.93
2023-03-12T03:08:22.626Z,78.87
2023-03-12T03:10:51.903Z,78.87
2023-03-12T03:13:18.897Z,79.04
2023-03-12T03:15:45.848Z,78.94
2023-03-12T03:18:12.827Z,78.92
2023-03-12T03:20:39.770Z,78.91
2023-03-12T03:23:06.646Z,79.38
2023-03-12T03:25:34.291Z,78.72
2023-03-12T03:28:01.442Z,77.37
2023-03-12T03:30:28.345Z,76.26
2023-03-12T03:32:55.180Z,76.72
2023-03-12T03:35:22.598Z,76.46
2023-03-12T03:37:49.640Z,76.53
2023-03-12T03:40:16.746Z,77.14
2023-03-12T03:42:43.730Z,77.36
2023-03-12T03:45:10.949Z,78.03
2023-03-12T03:47:39.480Z,78.70
2023-03-12T03:50:06.986Z,78.39
2023-03-12T03:52:34.185Z,78.40
2023-03-12T03:55:01.379Z,79.27
2023-03-12T03:57:29.222Z,80.20
2023-03-12T03:59:59.946Z,80.48
2023-03-12T04:02:29.184Z,80.43
2023-03-12T04:04:59.795Z,81.68
2023-03-12T04:07:28.379Z,82.46
2023-03-12T04:09:56.247Z,81.33
2023-03-12T04:12:25.939Z,79.62
2023-03-12T04:14:53.310Z,79.10
2023-03-12T04:17:21.097Z,79.62
2023-03-12T04:19:47.959Z,80.28
2023-03-12T04:22:14.895Z,80.40
2023-03-12T04:24:41.840Z,80.43
2023-03-12T04:27:08.709Z,80.53
2023-03-12T04:29:35.990Z,81.01
2023-03-12T04:32:03.055Z,81.33
2023-03-12T04:34:29.801Z,81.37
2023-03-12T04:36:56.962Z,81.44
2023-03-12T04:39:23.807Z,81.54
2023-03-12T04:41:52.371Z,81.81
2023-03-12T04:44:19.261Z,81.84
2023-03-12T04:46:46.335Z,82.07
2023-03-12T04:49:16.641Z,82.27
2023-03-12T04:51:43.745Z,82.17
2023-03-12T04:54:10.526Z,82.26
2023-03-12T04:56:38.927Z,82.03
2023-03-12T04:59:06.109Z,81.73
2023-03-12T05:01:35.726Z,81.68
2023-03-12T05:04:07.877Z,81.67
2023-03-12T05:06:34.826Z,82.46
2023-03-12T05:09:02.045Z,83.09
2023-03-12T05:11:29.311Z,83.31
2023-03-12T05:13:56.257Z,83.33
2023-03-12T05:16:24.034Z,83.32
2023-03-12T05:18:51.080Z,83.36
2023-03-12T05:21:20.674Z,83.12
2023-03-12T05:23:50.295Z,82.71
2023-03-12T05:26:17.198Z,82.36
2023-03-12T05:28:44.466Z,82.30
2023-03-12T05:31:12.907Z,82.42
2023-03-12T05:33:40.092Z,82.31
2023-03-12T05:36:08.971Z,81.99
2023-03-12T05:38:36.737Z,81.49
2023-03-12T05:41:04.254Z,80.96
2023-03-12T05:43:34.472Z,79.88
2023-03-12T05:46:04.059Z,77.95
2023-03-12T05:48:31.965Z,73.39
2023-03-12T05:50:59.238Z,68.65
2023-03-12T05:53:26.657Z,63.40
2023-03-12T05:55:54.158Z,60.52
2023-03-12T05:58:21.578Z,61.93
2023-03-12T06:00:49.157Z,58.65
2023-03-12T06:03:16.140Z,53.62
2023-03-12T06:05:44.768Z,52.37
2023-03-12T06:08:11.557Z,54.66
2023-03-12T06:10:42.392Z,50.18
2023-03-12T06:13:09.296Z,49.63
2023-03-12T06:15:36.222Z,50.93
2023-03-12T06:18:05.445Z,50.69
2023-03-12T06:20:33.579Z,51.55
2023-03-12T06:23:00.440Z,52.50
2023-03-12T06:25:27.344Z,50.34
2023-03-12T06:27:54.178Z,49.39
2023-03-12T06:30:21.008Z,48.22
2023-03-12T06:32:47.917Z,46.31
2023-03-12T06:35:14.676Z,46.68
2023-03-12T06:37:41.648Z,44.00
2023-03-12T06:40:11.010Z,43.66
2023-03-12T06:42:37.860Z,42.55
2023-03-12T06:45:05.662Z,43.42
2023-03-12T06:47:32.486Z,39.88
2023-03-12T06:49:59.292Z,40.01
2023-03-12T06:52:27.112Z,44.19
2023-03-12T06:54:53.913Z,41.87
2023-03-12T06:57:20.704Z,44.98
2023-03-12T06:59:50.089Z,47.92
2023-03-12T07:02:17.898Z,50.28
2023-03-12T07:04:44.839Z,49.02
2023-03-12T07:07:12.054Z,48.28
2023-03-12T07:09:38.948Z,47.50
2023-03-12T07:12:05.915Z,46.05
2023-03-12T07:14:32.811Z,45.90
2023-03-12T07:17:01.866Z,48.32
2023-03-12T07:19:30.373Z,49.21
2023-03-12T07:21:57.447Z,52.38
2023-03-12T07:24:24.214Z,51.04
2023-03-12T07:26:51.815Z,51.88
2023-03-12T07:29:19.338Z,51.51
2023-03-12T07:31:46.164Z,53.06
2023-03-12T07:34:14.324Z,52.50
2023-03-12T07:36:41.547Z,51.92
2023-03-12T07:39:09.745Z,51.01
2023-03-12T07:41:39.084Z,49.67
2023-03-12T07:44:06.734Z,49.71
2023-03-12T07:46:33.910Z,43.70
2023-03-12T07:49:01.393Z,42.32
2023-03-12T07:51:28.555Z,44.27
2023-03-12T07:53:55.830Z,46.95
2023-03-12T07:56:23.314Z,51.42
2023-03-12T07:58:50.423Z,49.63
2023-03-12T08:01:17.887Z,48.52
2023-03-12T08:03:45.497Z,44.42
2023-03-12T08:06:12.450Z,42.49
2023-03-12T08:08:42.403Z,39.70
2023-03-12T08:11:10.478Z,32.58
2023-03-12T08:13:37.227Z,33.35
2023-03-12T08:16:07.016Z,35.92
2023-03-12T08:18:35.644Z,37.59
2023-03-12T08:21:02.700Z,36.08
2023-03-12T08:23:29.657Z,35.53
2023-03-12T08:26:00.135Z,36.03
2023-03-12T08:28:27.958Z,35.77
2023-03-12T08:30:58.564Z,32.75
2023-03-12T08:33:25.401Z,35.69
2023-03-12T08:35:53.425Z,32.96
2023-03-12T08:38:21.231Z,38.17
2023-03-12T08:40:56.238Z,33.26
2023-03-12T08:43:24.336Z,32.53
2023-03-12T08:45:59.853Z,35.69
2023-03-12T08:48:28.046Z,32.98
2023-03-12T08:50:57.797Z,33.49
2023-03-12T08:53:26.563Z,33.34
2023-03-12T08:55:55.264Z,32.49
2023-03-12T08:58:26.169Z,31.53
2023-03-12T09:00:54.838Z,34.44
2023-03-12T09:03:22.581Z,31.94
2023-03-12T09:05:50.957Z,31.10
2023-03-12T09:08:18.994Z,30.86
2023-03-12T09:10:52.129Z,32.86
2023-03-12T09:13:19.048Z,32.83
2023-03-12T09:15:46.405Z,33.54
2023-03-12T09:18:13.242Z,30.70
2023-03-12T09:20:42.855Z,32.61
2023-03-12T09:23:09.761Z,32.98
2023-03-12T09:25:37.322Z,31.24
2023-03-12T09:28:04.121Z,32.07
2023-03-12T09:30:32.838Z,32.34
2023-03-12T09:33:00.413Z,30.70
2023-03-12T09:35:27.775Z,28.39
2023-03-12T09:37:54.684Z,30.86
2023-03-12T09:40:27.021Z,29.02
2023-03-12T09:43:15.730Z,30.89
2023-03-12T09:45:46.522Z,29.68
2023-03-12T09:48:25.497Z,27.15
2023-03-12T09:50:53.636Z,27.00
2023-03-12T09:53:41.553Z,31.43
2023-03-12T09:56:15.145Z,25.76
2023-03-12T09:58:48.631Z,29.22
2023-03-12T10:01:42.417Z,24.42
2023-03-12T10:04:18.277Z,24.78
2023-03-12T10:07:05.482Z,25.56
2023-03-12T10:09:59.321Z,27.54
2023-03-12T10:12:35.697Z,24.24
2023-03-12T10:15:02.481Z,24.79
2023-03-12T10:17:51.347Z,25.94
2023-03-12T10:20:45.973Z,25.51
2023-03-12T10:23:12.868Z,26.53
2023-03-12T10:25:46.206Z,26.75
2023-03-12T10:28:22.663Z,26.49
2023-03-12T10:31:01.939Z,26.07
2023-03-12T10:33:57.926Z,26.68
2023-03-12T10:36:33.787Z,26.19
2023-03-12T10:39:01.359Z,27.29
2023-03-12T10:41:34.561Z,28.04
2023-03-12T10:44:07.843Z,28.02
2023-03-12T10:47:01.784Z,28.74
2023-03-12T10:49:36.334Z,27.97
2023-03-12T10:52:14.754Z,27.88
2023-03-12T10:54:44.859Z,30.21
2023-03-12T10:57:13.904Z,27.43
2023-03-12T10:59:45.777Z,27.41
2023-03-12T11:02:43.864Z,28.11
2023-03-12T11:05:26.833Z,27.94
2023-03-12T11:07:53.947Z,27.78
2023-03-12T11:10:25.464Z,26.38
2023-03-12T11:13:02.177Z,26.99
2023-03-12T11:15:38.951Z,27.49
2023-03-12T11:18:27.962Z,27.36
2023-03-12T11:21:16.111Z,27.23
2023-03-12T11:24:04.932Z,26.60
2023-03-12T11:26:37.482Z,27.53
2023-03-12T11:29:28.668Z,27.30
2023-03-12T11:32:18.287Z,26.68
2023-03-12T11:34:49.848Z,25.70
2023-03-12T11:37:40.518Z,27.82
2023-03-12T11:40:19.432Z,27.33
2023-03-12T11:42:52.698Z,27.51
2023-03-12T11:45:34.472Z,26.89
2023-03-12T11:48:10.083Z,27.77
2023-03-12T11:51:08.035Z,26.80
2023-03-12T11:53:40.206Z,28.09
2023-03-12T11:56:10.646Z,28.06
2023-03-12T11:59:19.203Z,28.37
2023-03-12T12:02:18.635Z,27.71
2023-03-12T12:05:08.727Z,26.79
2023-03-12T12:07:56.559Z,26.81
2023-03-12T12:10:28.122Z,25.94
2023-03-12T12:13:27.208Z,26.00
2023-03-12T12:16:15.978Z,27.07
2023-03-12T12:18:48.554Z,28.64
2023-03-12T12:21:27.056Z,28.07
2023-03-12T12:24:07.606Z,26.86
2023-03-12T12:27:04.062Z,28.19
2023-03-12T12:30:12.479Z,27.32
2023-03-12T12:33:01.072Z,28.48
2023-03-12T12:35:36.520Z,25.04
2023-03-12T12:38:12.436Z,25.72
2023-03-12T12:40:43.539Z,27.47
2023-03-12T12:43:39.699Z,26.39
2023-03-12T12:46:16.180Z,26.35
2023-03-12T12:49:03.630Z,26.29
2023-03-12T12:51:36.572Z,26.10
2023-03-12T12:54:16.773Z,26.95
2023-03-12T12:57:03.640Z,27.61
2023-03-12T12:59:40.211Z,26.54
2023-03-12T13:02:20.254Z,27.52
2023-03-12T13:04:48.288Z,25.49
2023-03-12T13:07:22.283Z,25.39
2023-03-12T13:09:52.908Z,25.94
2023-03-12T13:12:47.768Z,25.28
2023-03-12T13:15:48.359Z,23.61
2023-03-12T13:18:32.236Z,24.35
2023-03-12T13:21:22.407Z,23.17
2023-03-12T13:23:55.673Z,24.69
2023-03-12T13:26:49.422Z,24.33
2023-03-12T13:29:29.906Z,24.14
2023-03-12T13:31:57.276Z,24.23
2023-03-12T13:34:27.553Z,23.95
2023-03-12T13:37:01.299Z,22.88
2023-03-12T13:39:33.872Z,22.76
2023-03-12T13:42:21.417Z,21.31
2023-03-12T13:44:48.815Z,23.65
2023-03-12T13:47:32.394Z,22.69
2023-03-12T13:50:19.813Z,24.11
2023-03-12T13:52:52.276Z,24.77
2023-03-12T13:55:29.660Z,24.10
2023-03-12T13:58:05.697Z,24.51
2023-03-12T14:00:45.221Z,23.66
2023-03-12T14:03:42.801Z,23.37
2023-03-12T14:06:15.053Z,24.24
2023-03-12T14:09:09.660Z,25.01
2023-03-12T14:11:54.808Z,23.01
2023-03-12T14:14:49.531Z,22.67
2023-03-12T14:17:27.349Z,22.26
2023-03-12T14:20:02.746Z,22.20
2023-03-12T14:22:34.466Z,23.30
2023-03-12T14:25:18.714Z,22.73
2023-03-12T14:27:47.919Z,22.71
2023-03-12T14:30:45.167Z,23.45
2023-03-12T14:33:15.235Z,22.90
2023-03-12T14:35:47.414Z,23.46
2023-03-12T14:38:28.524Z,22.28
2023-03-12T14:41:03.892Z,23.67
2023-03-12T14:43:34.663Z,23.67
2023-03-12T14:46:06.570Z,24.66
2023-03-12T14:48:37.503Z,24.57
2023-03-12T14:51:06.650Z,23.43
2023-03-12T14:53:36.379Z,24.55
2023-03-12T14:56:11.074Z,22.77
2023-03-12T14:58:49.013Z,24.10
2023-03-12T15:01:20.689Z,22.72
2023-03-12T15:03:52.419Z,22.59
2023-03-12T15:06:26.959Z,23.98
2023-03-12T15:08:54.250Z,24.19
2023-03-12T15:11:27.840Z,24.46
2023-03-12T15:14:01.373Z,23.70
2023-03-12T15:16:29.276Z,24.59
2023-03-12T15:18:57.102Z,24.17
2023-03-12T15:21:25.333Z,24.72
2023-03-12T15:23:52.475Z,25.20
2023-03-12T15:26:22.399Z,26.20
2023-03-12T15:29:27.334Z,25.27
2023-03-12T15:32:01.090Z,25.41
2023-03-12T15:34:28.877Z,25.32
2023-03-12T15:36:55.678Z,24.56
2023-03-12T15:39:26.634Z,24.59
2023-03-12T15:41:56.553Z,24.75
2023-03-12T15:44:26.895Z,24.25
2023-03-12T15:46:57.911Z,23.82
2023-03-12T15:49:31.017Z,25.19
2023-03-12T15:52:19.416Z,25.53
2023-03-12T15:55:07.223Z,26.12
2023-03-12T15:57:35.520Z,26.75
2023-03-12T16:00:14.238Z,26.40
2023-03-12T16:03:01.526Z,27.21
2023-03-12T16:05:39.364Z,27.41
2023-03-12T16:08:16.661Z,27.60
2023-03-12T16:10:44.919Z,27.74
2023-03-12T16:13:16.399Z,26.84
2023-03-12T16:15:44.265Z,26.59
2023-03-12T16:18:15.925Z,27.68
2023-03-12T16:20:44.766Z,28.62
2023-03-12T16:23:13.272Z,28.50
2023-03-12T16:25:43.818Z,29.10
2023-03-12T16:28:14.577Z,29.10
2023-03-12T16:30:41.538Z,29.45
2023-03-12T16:33:09.716Z,29.39
2023-03-12T16:35:36.956Z,29.58
2023-03-12T16:38:04.842Z,30.22
2023-03-12T16:40:35.776Z,29.92
2023-03-12T16:43:06.848Z,30.92
2023-03-12T16:45:37.007Z,31.23
2023-03-12T16:48:07.177Z,31.57
2023-03-12T16:50:33.974Z,32.88
2023-03-12T16:53:03.423Z,34.00
2023-03-12T16:55:40.191Z,34.56
2023-03-12T16:58:07.234Z,34.16
2023-03-12T17:00:35.503Z,34.45
2023-03-12T17:03:02.517Z,35.49
2023-03-12T17:05:30.240Z,36.24
2023-03-12T17:07:59.355Z,37.21
2023-03-12T17:10:26.573Z,39.37
2023-03-12T17:12:54.501Z,40.59
2023-03-12T17:15:26.350Z,41.02
2023-03-12T17:17:55.606Z,41.82
2023-03-12T17:20:25.059Z,42.26
2023-03-12T17:22:52.517Z,43.08
2023-03-12T17:25:25.033Z,43.52
2023-03-12T17:27:52.111Z,44.02
2023-03-12T17:30:22.099Z,44.31
2023-03-12T17:32:51.123Z,44.24
2023-03-12T17:35:19.186Z,44.74
2023-03-12T17:37:48.522Z,45.90
2023-03-12T17:40:17.073Z,45.90
2023-03-12T17:42:43.907Z,46.80
2023-03-12T17:45:11.921Z,47.43
2023-03-12T17:47:38.714Z,47.70
2023-03-12T17:50:07.246Z,48.74
2023-03-12T17:52:34.526Z,49.45
2023-03-12T17:55:01.960Z,49.56
2023-03-12T17:57:29.917Z,49.49
2023-03-12T17:59:57.317Z,49.69
2023-03-12T18:02:24.709Z,49.87
2023-03-12T18:04:52.112Z,51.30
2023-03-12T18:07:19.405Z,51.76
2023-03-12T18:09:46.290Z,52.59
2023-03-12T18:12:13.772Z,52.30
2023-03-12T18:14:40.601Z,53.05
2023-03-12T18:17:07.815Z,52.94
2023-03-12T18:19:35.599Z,54.23
2023-03-12T18:22:03.179Z,55.78
2023-03-12T18:24:30.255Z,55.83
2023-03-12T18:26:57.095Z,54.65
2023-03-12T18:29:23.973Z,55.00
2023-03-12T18:31:51.385Z,54.36
2023-03-12T18:34:18.380Z,54.23
2023-03-12T18:36:46.137Z,53.97
2023-03-12T18:39:13.041Z,54.21
2023-03-12T18:41:41.918Z,54.49
2023-03-12T18:44:08.933Z,54.63
2023-03-12T18:46:36.423Z,54.63
2023-03-12T18:49:05.705Z,54.57
2023-03-12T18:51:33.389Z,54.12
2023-03-12T18:54:00.846Z,54.62
2023-03-12T18:56:29.274Z,54.97
2023-03-12T18:58:56.237Z,54.02
2023-03-12T19:01:23.156Z,53.68
2023-03-12T19:03:50.768Z,53.52
2023-03-12T19:06:18.097Z,54.07
2023-03-12T19:08:45.725Z,54.20
2023-03-12T19:11:16.053Z,53.98
2023-03-12T19:13:43.467Z,54.64
2023-03-12T19:16:12.543Z,55.25
2023-03-12T19:18:39.887Z,55.98
2023-03-12T19:21:08.490Z,56.07
2023-03-12T19:23:36.290Z,56.30
2023-03-12T19:26:04.087Z,55.70
2023-03-12T19:28:31.723Z,55.67
2023-03-12T19:31:04.392Z,55.45
2023-03-12T19:33:32.028Z,56.22
2023-03-12T19:36:00.679Z,56.74
2023-03-12T19:38:28.682Z,56.68
2023-03-12T19:40:58.004Z,56.26
2023-03-12T19:43:26.161Z,56.71
2023-03-12T19:45:55.325Z,56.70
2023-03-12T19:48:29.087Z,56.60
2023-03-12T19:50:57.200Z,56.71
2023-03-12T19:53:25.101Z,57.00
2023-03-12T19:55:52.243Z,57.67
2023-03-12T19:58:19.270Z,57.90
2023-03-12T20:00:51.551Z,58.29
2023-03-12T20:03:20.733Z,58.67
2023-03-12T20:05:49.172Z,58.95
2023-03-12T20:08:16.698Z,59.57
2023-03-12T20:10:43.991Z,59.49
2023-03-12T20:13:13.033Z,59.60
2023-03-12T20:15:40.810Z,60.53
2023-03-12T20:18:07.710Z,60.41
2023-03-12T20:20:34.527Z,61.79
2023-03-12T20:23:02.009Z,62.15
2023-03-12T20:25:28.778Z,61.68
2023-03-12T20:27:58.830Z,61.41
2023-03-12T20:30:25.734Z,60.80
2023-03-12T20:32:52.514Z,60.73
2023-03-12T20:35:19.408Z,61.15
2023-03-12T20:37:46.340Z,61.35
2023-03-12T20:40:13.925Z,61.42
2023-03-12T20:42:41.771Z,61.69
2023-03-12T20:45:09.200Z,62.15
2023-03-12T20:47:37.375Z,62.37
2023-03-12T20:50:04.440Z,62.97
2023-03-12T20:52:31.245Z,63.26
2023-03-12T20:54:58.852Z,63.66
2023-03-12T20:57:25.695Z,64.40
2023-03-12T20:59:53.189Z,64.16
2023-03-12T21:02:20.700Z,64.50
2023-03-12T21:04:49.459Z,64.12
2023-03-12T21:07:16.863Z,63.92
2023-03-12T21:09:43.654Z,64.47
2023-03-12T21:12:10.575Z,64.73
2023-03-12T21:14:40.327Z,65.17
2023-03-12T21:17:10.497Z,65.19
2023-03-12T21:19:37.524Z,65.50
2023-03-12T21:22:04.260Z,66.07
2023-03-12T21:24:33.363Z,66.65
2023-03-12T21:27:00.461Z,66.43
2023-03-12T21:29:27.382Z,65.90
2023-03-12T21:31:55.372Z,65.69
2023-03-12T21:34:23.183Z,66.11
2023-03-12T21:36:49.970Z,66.14
2023-03-12T21:39:18.218Z,65.69
2023-03-12T21:41:45.276Z,66.30
2023-03-12T21:44:12.524Z,65.95
2023-03-12T21:46:40.370Z,65.85
2023-03-12T21:49:07.245Z,66.20
2023-03-12T21:51:34.057Z,66.56
2023-03-12T21:54:01.703Z,67.13
2023-03-12T21:56:30.843Z,66.98
2023-03-12T21:58:58.406Z,67.27
2023-03-12T22:01:25.877Z,67.58
2023-03-12T22:03:53.705Z,67.49
2023-03-12T22:06:22.254Z,68.05
2023-03-12T22:08:49.558Z,67.97
2023-03-12T22:11:16.561Z,67.59
2023-03-12T22:13:44.117Z,67.50
2023-03-12T22:16:12.314Z,67.15
2023-03-12T22:18:41.624Z,67.68
2023-03-12T22:21:13.321Z,69.33
2023-03-12T22:23:40.459Z,69.77
2023-03-12T22:26:07.749Z,69.87
2023-03-12T22:28:34.928Z,69.52
2023-03-12T22:31:07.737Z,69.38
2023-03-12T22:33:36.381Z,69.21
2023-03-12T22:36:11.421Z,69.31
2023-03-12T22:38:39.894Z,69.39
2023-03-12T22:41:12.589Z,70.07
2023-03-12T22:43:39.374Z,70.60
2023-03-12T22:46:06.262Z,70.84
2023-03-12T22:48:33.329Z,70.11
2023-03-12T22:51:00.295Z,70.48
2023-03-12T22:53:27.461Z,70.68
2023-03-12T22:56:02.224Z,70.65
2023-03-12T22:58:29.358Z,70.58
2023-03-12T23:01:07.693Z,70.82
2023-03-12T23:03:36.599Z,70.74
2023-03-12T23:06:04.143Z,70.70
2023-03-12T23:08:31.100Z,70.30
2023-03-12T23:11:01.184Z,70.89
2023-03-12T23:13:29.497Z,70.56
2023-03-12T23:16:03.121Z,71.11
2023-03-12T23:18:30.005Z,71.17
2023-03-12T23:21:05.886Z,70.93
2023-03-12T23:23:33.224Z,71.06
2023-03-12T23:26:01.340Z,71.18
2023-03-12T23:28:29.146Z,70.77
2023-03-12T23:31:03.633Z,70.75
2023-03-12T23:33:31.425Z,70.81
2023-03-12T23:36:08.761Z,70.81
2023-03-12T23:38:37.579Z,71.09
2023-03-12T23:41:17.130Z,71.61
2023-03-12T23:43:44.836Z,72.18
2023-03-12T23:46:13.309Z,72.20
2023-03-12T23:48:41.096Z,71.49
2023-03-12T23:51:11.044Z,71.06
2023-03-12T23:53:39.494Z,70.92
2023-03-12T23:56:08.727Z,71.13
2023-03-12T23:58:36.197Z,71.39
